createdAt,value
2023-10-10T00:00:56.158Z,37.20
2023-10-10T00:03:28.325Z,36.60
2023-10-10T00:05:59.618Z,37.00
2023-10-10T00:08:34.658Z,37.30
2023-10-10T00:11:10.282Z,37.50
2023-10-10T00:13:43.330Z,37.70
2023-10-10T00:16:12.649Z,37.40
2023-10-10T00:18:44.540Z,38.00
2023-10-10T00:21:18.511Z,37.40
2023-10-10T00:23:48.432Z,37.50
2023-10-10T00:26:17.049Z,37.50
2023-10-10T00:28:46.366Z,37.30
2023-10-10T00:31:19.684Z,37.40
2023-10-10T00:33:51.150Z,37.00
2023-10-10T00:36:23.495Z,38.10
2023-10-10T00:38:59.000Z,37.90
2023-10-10T00:41:27.924Z,37.80
2023-10-10T00:43:57.035Z,37.60
2023-10-10T00:46:29.411Z,37.00
2023-10-10T00:49:01.508Z,37.50
2023-10-10T00:51:32.765Z,37.40
2023-10-10T00:54:13.345Z,37.30
2023-10-10T00:56:45.187Z,37.50
2023-10-10T00:59:17.391Z,38.10
2023-10-10T01:01:46.927Z,37.60
2023-10-10T01:04:15.269Z,37.70
2023-10-10T01:06:43.312Z,37.90
2023-10-10T01:09:22.538Z,37.90
2023-10-10T01:11:51.027Z,37.70
2023-10-10T01:14:22.371Z,37.90
2023-10-10T01:16:59.224Z,38.50
2023-10-10T01:19:29.693Z,38.50
2023-10-10T01:22:00.638Z,38.40
2023-10-10T01:24:32.073Z,38.80
2023-10-10T01:27:06.083Z,38.30
2023-10-10T01:29:41.789Z,38.60
2023-10-10T01:32:12.024Z,38.00
2023-10-10T01:34:44.707Z,38.00
2023-10-10T01:37:21.799Z,37.80
2023-10-10T01:40:12.920Z,38.30
2023-10-10T01:42:46.155Z,38.60
2023-10-10T01:45:19.855Z,38.20
2023-10-10T01:47:58.673Z,38.40
2023-10-10T01:50:28.247Z,38.20
2023-10-10T01:52:58.864Z,38.20
2023-10-10T01:55:27.654Z,39.10
2023-10-10T01:57:58.762Z,38.30
2023-10-10T02:00:28.917Z,38.90
2023-10-10T02:02:58.071Z,38.40
2023-10-10T02:05:43.713Z,39.00
2023-10-10T02:08:18.008Z,39.20
2023-10-10T02:10:50.836Z,39.00
2023-10-10T02:13:20.882Z,39.30
2023-10-10T02:15:48.876Z,39.40
2023-10-10T02:18:24.966Z,39.00
2023-10-10T02:20:54.033Z,39.80
2023-10-10T02:23:32.222Z,39.20
2023-10-10T02:26:15.235Z,39.30
2023-10-10T02:28:48.513Z,39.00
2023-10-10T02:31:19.412Z,39.10
2023-10-10T02:33:52.713Z,39.00
2023-10-10T02:36:31.606Z,39.20
2023-10-10T02:39:20.020Z,39.60
2023-10-10T02:41:52.848Z,39.10
2023-10-10T02:44:41.510Z,39.00
2023-10-10T02:47:13.325Z,39.10
2023-10-10T02:49:43.142Z,39.00
2023-10-10T02:52:15.425Z,39.30
2023-10-10T02:54:55.034Z,39.60
2023-10-10T02:57:29.726Z,39.10
2023-10-10T03:03:00.532Z,39.40
2023-10-10T03:05:40.626Z,38.90
2023-10-10T03:08:14.815Z,39.20
2023-10-10T03:10:47.697Z,39.30
2023-10-10T03:13:28.953Z,39.30
2023-10-10T03:15:57.504Z,39.30
2023-10-10T03:18:36.210Z,39.60
2023-10-10T03:21:25.087Z,40.30
2023-10-10T03:23:57.809Z,40.30
2023-10-10T03:26:52.017Z,41.00
2023-10-10T03:29:37.770Z,40.20
2023-10-10T03:32:32.105Z,40.60
2023-10-10T03:35:07.255Z,40.80
2023-10-10T03:37:42.418Z,40.40
2023-10-10T03:40:31.336Z,40.50
2023-10-10T03:43:16.809Z,40.00
2023-10-10T03:46:02.432Z,40.20
2023-10-10T03:48:48.344Z,40.30
2023-10-10T03:51:35.384Z,40.70
2023-10-10T03:54:20.960Z,40.00
2023-10-10T03:57:06.542Z,40.00
2023-10-10T03:59:52.215Z,40.00
2023-10-10T04:02:37.497Z,40.00
2023-10-10T04:05:38.845Z,40.20
2023-10-10T04:08:25.735Z,40.40
2023-10-10T04:11:11.067Z,40.50
2023-10-10T04:13:56.541Z,40.30
2023-10-10T04:16:42.382Z,40.30
2023-10-10T04:19:27.899Z,40.50
2023-10-10T04:22:13.408Z,40.30
2023-10-10T04:25:02.386Z,40.10
2023-10-10T04:27:48.705Z,40.70
2023-10-10T04:30:34.338Z,40.60
2023-10-10T04:33:19.960Z,40.90
2023-10-10T04:36:05.361Z,40.50
2023-10-10T04:38:51.034Z,39.90
2023-10-10T04:41:37.956Z,39.30
2023-10-10T04:44:24.422Z,39.90
2023-10-10T04:47:09.985Z,41.20
2023-10-10T04:49:55.501Z,40.20
2023-10-10T04:52:41.300Z,40.30
2023-10-10T04:55:27.727Z,40.20
2023-10-10T04:58:14.765Z,39.50
2023-10-10T05:01:00.372Z,39.30
2023-10-10T05:03:45.983Z,38.90
2023-10-10T05:06:33.588Z,39.00
2023-10-10T05:09:20.904Z,39.30
2023-10-10T05:12:06.472Z,38.80
2023-10-10T05:14:53.376Z,39.60
2023-10-10T05:17:38.988Z,38.50
2023-10-10T05:20:26.516Z,38.80
2023-10-10T05:23:12.535Z,39.50
2023-10-10T05:25:42.460Z,38.70
2023-10-10T05:28:12.160Z,38.60
2023-10-10T05:30:45.910Z,38.90
2023-10-10T05:33:15.171Z,38.90
2023-10-10T05:35:48.554Z,39.20
2023-10-10T05:38:17.476Z,38.40
2023-10-10T05:40:48.324Z,38.60
2023-10-10T05:43:17.537Z,38.50
2023-10-10T05:45:48.808Z,38.80
2023-10-10T05:48:16.891Z,38.50
2023-10-10T05:50:44.912Z,38.50
2023-10-10T05:53:13.040Z,38.60
2023-10-10T05:55:41.948Z,38.70
2023-10-10T05:58:12.078Z,38.70
2023-10-10T06:00:42.765Z,38.50
2023-10-10T06:03:13.326Z,38.70
2023-10-10T06:05:45.198Z,39.10
2023-10-10T06:08:14.775Z,39.20
2023-10-10T06:10:42.967Z,39.20
2023-10-10T06:13:12.465Z,39.20
2023-10-10T06:15:41.235Z,39.10
2023-10-10T06:18:14.243Z,39.20
2023-10-10T06:23:17.127Z,39.50
2023-10-10T06:25:46.942Z,39.10
2023-10-10T06:28:25.947Z,39.20
2023-10-10T06:30:54.998Z,39.60
2023-10-10T06:33:29.558Z,39.00
2023-10-10T06:36:29.172Z,39.10
2023-10-10T06:39:18.041Z,39.80
2023-10-10T06:41:51.561Z,39.00
2023-10-10T06:44:34.168Z,39.00
2023-10-10T06:47:09.678Z,39.00
2023-10-10T06:49:45.429Z,38.50
2023-10-10T06:52:19.280Z,37.50
2023-10-10T06:54:54.753Z,37.50
2023-10-10T06:57:39.215Z,37.20
2023-10-10T07:00:30.086Z,36.90
2023-10-10T07:02:59.082Z,37.20
2023-10-10T07:05:34.706Z,36.90
2023-10-10T07:08:14.747Z,36.50
2023-10-10T07:10:44.105Z,35.00
2023-10-10T07:13:14.727Z,34.70
2023-10-10T07:15:44.074Z,34.40
2023-10-10T07:18:16.552Z,35.10
2023-10-10T07:21:04.630Z,35.00
2023-10-10T07:24:01.162Z,34.60
2023-10-10T07:26:32.026Z,34.80
2023-10-10T07:29:20.206Z,34.60
2023-10-10T07:31:48.253Z,34.90
2023-10-10T07:34:17.413Z,34.70
2023-10-10T07:36:45.807Z,34.60
2023-10-10T07:39:32.870Z,34.70
2023-10-10T07:42:01.083Z,33.90
2023-10-10T07:44:31.269Z,34.20
2023-10-10T07:47:17.072Z,34.10
2023-10-10T07:49:51.682Z,34.00
2023-10-10T07:52:21.425Z,32.70
2023-10-10T07:54:54.664Z,33.60
2023-10-10T07:57:29.508Z,33.80
2023-10-10T07:59:58.286Z,33.60
2023-10-10T08:02:32.761Z,33.40
2023-10-10T08:05:10.277Z,34.50
2023-10-10T08:07:38.651Z,33.60
2023-10-10T08:10:30.406Z,33.50
2023-10-10T08:12:58.610Z,33.00
2023-10-10T08:15:27.075Z,32.80
2023-10-10T08:17:57.217Z,33.20
2023-10-10T08:20:35.851Z,33.40
2023-10-10T08:23:05.749Z,33.00
2023-10-10T08:25:38.870Z,33.10
2023-10-10T08:28:07.113Z,32.70
2023-10-10T08:30:35.395Z,33.10
2023-10-10T08:33:04.234Z,33.50
2023-10-10T08:35:40.158Z,33.30
2023-10-10T08:38:08.699Z,33.00
2023-10-10T08:40:41.908Z,32.70
2023-10-10T08:43:10.264Z,32.80
2023-10-10T08:45:44.818Z,32.30
2023-10-10T08:48:14.667Z,32.00
2023-10-10T08:50:45.828Z,32.00
2023-10-10T08:53:14.778Z,32.30
2023-10-10T08:55:44.585Z,32.10
2023-10-10T08:58:12.815Z,32.00
2023-10-10T09:00:41.294Z,31.50
2023-10-10T09:03:10.199Z,31.80
2023-10-10T09:05:38.703Z,31.50
2023-10-10T09:08:15.329Z,31.50
2023-10-10T09:10:47.292Z,31.20
2023-10-10T09:13:17.796Z,31.70
2023-10-10T09:15:56.029Z,31.40
2023-10-10T09:18:26.784Z,31.00
2023-10-10T09:21:19.034Z,31.40
2023-10-10T09:24:07.795Z,31.20
2023-10-10T09:26:38.508Z,31.00
2023-10-10T09:29:16.682Z,31.00
2023-10-10T09:31:46.748Z,30.90
2023-10-10T09:34:19.542Z,31.20
2023-10-10T09:36:55.926Z,31.00
2023-10-10T09:39:37.461Z,30.90
2023-10-10T09:42:28.953Z,31.50
2023-10-10T09:45:15.841Z,30.90
2023-10-10T09:47:56.799Z,31.00
2023-10-10T09:50:46.456Z,30.80
2023-10-10T09:53:24.460Z,31.30
2023-10-10T09:56:02.379Z,31.90
2023-10-10T09:58:42.781Z,31.40
2023-10-10T10:01:20.118Z,31.50
2023-10-10T10:03:57.010Z,31.20
2023-10-10T10:06:49.313Z,31.70
2023-10-10T10:10:21.554Z,31.30
2023-10-10T10:13:14.777Z,31.00
2023-10-10T10:16:09.644Z,31.10
2023-10-10T10:18:46.425Z,31.20
2023-10-10T10:21:28.812Z,31.00
2023-10-10T10:24:13.934Z,31.60
2023-10-10T10:26:44.583Z,31.10
2023-10-10T10:29:29.633Z,30.70
2023-10-10T10:32:02.370Z,30.70
2023-10-10T10:34:36.130Z,31.10
2023-10-10T10:37:08.849Z,31.20
2023-10-10T10:39:40.106Z,30.80
2023-10-10T10:42:14.008Z,31.00
2023-10-10T10:44:54.726Z,30.70
2023-10-10T10:47:55.622Z,31.00
2023-10-10T10:50:46.659Z,31.50
2023-10-10T10:53:34.942Z,31.10
2023-10-10T10:56:22.574Z,31.50
2023-10-10T10:59:12.127Z,30.60
2023-10-10T11:01:52.376Z,30.40
2023-10-10T11:04:44.043Z,30.80
2023-10-10T11:07:17.243Z,31.00
2023-10-10T11:09:53.944Z,30.50
2023-10-10T11:12:32.349Z,30.70
2023-10-10T11:15:08.745Z,30.70
2023-10-10T11:17:40.959Z,30.90
2023-10-10T11:20:51.520Z,30.40
2023-10-10T11:23:21.871Z,30.50
2023-10-10T11:26:01.419Z,30.20
2023-10-10T11:28:46.555Z,30.60
2023-10-10T11:31:15.341Z,30.80
2023-10-10T11:33:52.009Z,30.30
2023-10-10T11:36:30.181Z,30.90
2023-10-10T11:39:17.803Z,30.20
2023-10-10T11:41:47.594Z,30.80
2023-10-10T11:44:21.059Z,30.50
2023-10-10T11:46:50.788Z,30.70
2023-10-10T11:49:19.900Z,30.00
2023-10-10T11:51:49.246Z,30.70
2023-10-10T11:54:26.158Z,30.30
2023-10-10T11:56:54.236Z,30.40
2023-10-10T11:59:23.442Z,30.10
2023-10-10T12:02:08.447Z,30.40
2023-10-10T12:04:38.943Z,29.90
2023-10-10T12:07:08.362Z,30.10
2023-10-10T12:09:39.826Z,30.00
2023-10-10T12:12:07.969Z,29.90
2023-10-10T12:14:36.126Z,29.80
2023-10-10T12:17:07.269Z,29.90
2023-10-10T12:19:44.543Z,29.80
2023-10-10T12:22:14.794Z,29.80
2023-10-10T12:24:42.907Z,29.80
2023-10-10T12:27:11.238Z,29.80
2023-10-10T12:29:41.482Z,29.50
2023-10-10T12:32:23.370Z,29.60
2023-10-10T12:34:51.547Z,29.50
2023-10-10T12:37:24.244Z,29.90
2023-10-10T12:39:53.471Z,29.50
2023-10-10T12:42:21.477Z,29.30
2023-10-10T12:44:49.552Z,29.20
2023-10-10T12:47:20.287Z,28.90
2023-10-10T12:49:48.307Z,29.10
2023-10-10T12:52:18.274Z,29.20
2023-10-10T12:54:57.990Z,29.10
2023-10-10T12:57:25.973Z,29.10
2023-10-10T13:00:14.036Z,29.00
2023-10-10T13:02:42.206Z,29.00
2023-10-10T13:05:12.326Z,28.60
2023-10-10T13:07:42.429Z,28.70
2023-10-10T13:10:14.211Z,28.50
2023-10-10T13:12:46.260Z,28.70
2023-10-10T13:15:19.518Z,28.20
2023-10-10T13:17:55.469Z,28.30
2023-10-10T13:20:23.822Z,28.50
2023-10-10T13:22:52.404Z,27.90
2023-10-10T13:25:23.115Z,28.60
2023-10-10T13:27:53.256Z,27.90
2023-10-10T13:30:21.441Z,27.80
2023-10-10T13:32:49.497Z,27.50
2023-10-10T13:35:20.958Z,27.80
2023-10-10T13:37:49.139Z,27.50
2023-10-10T13:40:23.790Z,27.50
2023-10-10T13:42:53.244Z,27.30
2023-10-10T13:45:23.665Z,27.30
2023-10-10T13:47:52.183Z,27.60
2023-10-10T13:50:32.236Z,27.60
2023-10-10T13:53:00.998Z,27.70
2023-10-10T13:55:35.029Z,27.40
2023-10-10T13:58:08.341Z,27.60
2023-10-10T14:00:42.658Z,27.40
2023-10-10T14:03:11.099Z,28.50
2023-10-10T14:05:43.044Z,27.30
2023-10-10T14:08:18.909Z,27.20
2023-10-10T14:10:51.273Z,27.30
2023-10-10T14:13:24.762Z,27.30
2023-10-10T14:15:57.414Z,27.30
2023-10-10T14:18:29.144Z,27.70
2023-10-10T14:21:02.251Z,27.70
2023-10-10T14:23:36.394Z,27.80
2023-10-10T14:26:13.725Z,27.40
2023-10-10T14:28:51.259Z,27.30
2023-10-10T14:31:22.213Z,27.10
2023-10-10T14:33:50.959Z,27.20
2023-10-10T14:36:19.774Z,27.40
2023-10-10T14:38:51.074Z,28.20
2023-10-10T14:41:21.918Z,28.50
2023-10-10T14:43:55.562Z,27.70
2023-10-10T14:46:28.284Z,28.30
2023-10-10T14:49:06.318Z,27.60
2023-10-10T14:51:36.569Z,27.90
2023-10-10T14:54:09.676Z,27.70
2023-10-10T14:56:39.238Z,27.80
2023-10-10T14:59:11.694Z,28.40
2023-10-10T15:01:39.737Z,28.40
2023-10-10T15:04:09.737Z,28.10
2023-10-10T15:06:40.767Z,28.30
2023-10-10T15:09:14.572Z,28.20
2023-10-10T15:11:47.617Z,28.50
2023-10-10T15:14:20.071Z,28.80
2023-10-10T15:16:48.501Z,28.80
2023-10-10T15:19:17.053Z,29.00
2023-10-10T15:21:49.280Z,29.10
2023-10-10T15:24:17.438Z,29.40
2023-10-10T15:26:48.798Z,29.40
2023-10-10T15:29:22.199Z,28.90
2023-10-10T15:31:51.284Z,29.10
2023-10-10T15:34:19.782Z,28.40
2023-10-10T15:36:47.850Z,28.70
2023-10-10T15:39:16.877Z,28.90
2023-10-10T15:41:45.822Z,28.90
2023-10-10T15:44:16.312Z,28.90
2023-10-10T15:46:46.102Z,28.90
2023-10-10T15:49:33.198Z,29.00
2023-10-10T15:52:05.253Z,29.10
2023-10-10T15:54:36.112Z,28.80
2023-10-10T15:57:07.537Z,28.60
2023-10-10T15:59:36.702Z,29.10
2023-10-10T16:02:10.322Z,29.00
2023-10-10T16:04:43.289Z,28.90
2023-10-10T16:07:11.856Z,29.20
2023-10-10T16:09:39.850Z,29.00
2023-10-10T16:12:13.491Z,29.00
2023-10-10T16:14:41.609Z,29.00
2023-10-10T16:17:16.683Z,29.10
2023-10-10T16:19:44.974Z,28.90
2023-10-10T16:22:14.362Z,29.50
2023-10-10T16:24:42.403Z,29.10
2023-10-10T16:27:10.466Z,29.20
2023-10-10T16:29:38.498Z,29.30
2023-10-10T16:32:09.414Z,29.20
2023-10-10T16:34:44.167Z,29.10
2023-10-10T16:37:15.380Z,29.30
2023-10-10T16:39:45.826Z,29.20
2023-10-10T16:42:14.844Z,29.40
2023-10-10T16:44:42.933Z,29.60
2023-10-10T16:47:14.957Z,29.30
2023-10-10T16:49:44.294Z,29.50
2023-10-10T16:52:12.468Z,29.40
2023-10-10T16:54:46.905Z,29.60
2023-10-10T16:57:14.961Z,29.60
2023-10-10T16:59:43.969Z,29.50
2023-10-10T17:02:12.702Z,29.70
2023-10-10T17:04:41.253Z,29.70
2023-10-10T17:07:12.327Z,30.00
2023-10-10T17:09:41.174Z,30.00
2023-10-10T17:12:09.406Z,30.40
2023-10-10T17:14:38.521Z,30.20
2023-10-10T17:17:06.768Z,30.80
2023-10-10T17:19:36.715Z,30.80
2023-10-10T17:22:04.881Z,31.10
2023-10-10T17:24:34.238Z,31.00
2023-10-10T17:27:07.544Z,31.00
2023-10-10T17:29:36.881Z,31.40
2023-10-10T17:32:06.863Z,31.50
2023-10-10T17:34:35.012Z,31.20
2023-10-10T17:37:09.559Z,31.90
2023-10-10T17:39:38.919Z,31.60
2023-10-10T17:42:08.030Z,31.80
2023-10-10T17:44:38.916Z,31.90
2023-10-10T17:47:07.469Z,32.50
2023-10-10T17:49:35.962Z,31.50
2023-10-10T17:52:04.364Z,31.80
2023-10-10T17:54:32.505Z,32.00
2023-10-10T17:57:01.930Z,31.40
2023-10-10T17:59:32.131Z,31.50
2023-10-10T18:02:00.707Z,31.50
2023-10-10T18:04:29.364Z,31.50
2023-10-10T18:07:00.910Z,31.70
2023-10-10T18:09:33.285Z,31.60
2023-10-10T18:12:03.493Z,31.50
2023-10-10T18:14:31.884Z,31.70
2023-10-10T18:16:59.882Z,31.50
2023-10-10T18:19:28.645Z,31.50
2023-10-10T18:21:56.750Z,31.40
2023-10-10T18:24:28.238Z,31.50
2023-10-10T18:26:57.272Z,31.00
2023-10-10T18:29:27.548Z,31.20
2023-10-10T18:31:58.951Z,31.20
2023-10-10T18:34:26.982Z,31.30
2023-10-10T18:36:55.012Z,31.20
2023-10-10T18:39:27.620Z,31.00
2023-10-10T18:41:55.794Z,31.20
2023-10-10T18:44:25.850Z,31.50
2023-10-10T18:46:53.873Z,31.00
2023-10-10T18:49:22.960Z,31.30
2023-10-10T18:51:51.194Z,30.80
2023-10-10T18:54:20.269Z,31.40
2023-10-10T18:56:50.835Z,31.10
2023-10-10T18:59:19.089Z,31.50
2023-10-10T19:01:49.630Z,31.10
2023-10-10T19:04:19.569Z,31.20
2023-10-10T19:06:51.264Z,31.00
2023-10-10T19:09:23.998Z,31.20
2023-10-10T19:11:55.590Z,31.50
2023-10-10T19:14:23.776Z,31.10
2023-10-10T19:16:54.162Z,31.50
2023-10-10T19:19:22.230Z,31.20
2023-10-10T19:21:50.263Z,31.30
2023-10-10T19:24:21.321Z,31.20
2023-10-10T19:26:49.427Z,31.30
2023-10-10T19:29:18.471Z,31.50
2023-10-10T19:31:46.564Z,32.10
2023-10-10T19:34:16.902Z,31.40
2023-10-10T19:36:45.772Z,31.60
2023-10-10T19:39:16.519Z,31.70
2023-10-10T19:41:44.755Z,31.80
2023-10-10T19:44:15.897Z,31.90
2023-10-10T19:46:45.347Z,31.70
2023-10-10T19:49:15.416Z,31.60
2023-10-10T19:51:45.467Z,31.50
2023-10-10T19:54:14.155Z,31.60
2023-10-10T19:56:43.923Z,31.50
2023-10-10T19:59:12.013Z,32.10
2023-10-10T20:01:40.098Z,31.80
2023-10-10T20:04:08.593Z,31.70
2023-10-10T20:06:38.243Z,31.70
2023-10-10T20:09:11.535Z,31.90
2023-10-10T20:11:41.603Z,31.90
2023-10-10T20:14:10.519Z,31.60
2023-10-10T20:16:39.554Z,31.60
2023-10-10T20:19:08.190Z,32.10
2023-10-10T20:21:37.622Z,32.00
2023-10-10T20:24:09.328Z,31.70
2023-10-10T20:26:37.778Z,32.60
2023-10-10T20:29:10.433Z,32.20
2023-10-10T20:31:38.388Z,32.20
2023-10-10T20:34:06.452Z,32.10
2023-10-10T20:36:37.717Z,32.20
2023-10-10T20:39:07.632Z,32.00
2023-10-10T20:41:35.745Z,32.20
2023-10-10T20:44:03.809Z,32.40
2023-10-10T20:46:32.538Z,32.30
2023-10-10T20:49:01.499Z,32.10
2023-10-10T20:51:29.516Z,32.40
2023-10-10T20:53:57.866Z,30.90
2023-10-10T20:56:28.565Z,30.80
2023-10-10T20:58:56.557Z,32.70
2023-10-10T21:01:24.588Z,32.00
2023-10-10T21:03:52.712Z,31.90
2023-10-10T21:06:21.746Z,31.70
2023-10-10T21:08:50.271Z,31.60
2023-10-10T21:11:18.465Z,31.70
2023-10-10T21:13:48.000Z,31.80
2023-10-10T21:16:17.212Z,31.50
2023-10-10T21:18:47.426Z,31.60
2023-10-10T21:21:16.103Z,32.40
2023-10-10T21:23:44.619Z,31.90
2023-10-10T21:26:15.046Z,32.00
2023-10-10T21:28:43.833Z,33.30
2023-10-10T21:31:13.545Z,32.10
2023-10-10T21:33:44.756Z,32.40
2023-10-10T21:36:13.781Z,32.50
2023-10-10T21:38:42.055Z,32.50
2023-10-10T21:41:10.932Z,32.70
2023-10-10T21:43:39.723Z,32.90
2023-10-10T21:46:08.159Z,33.10
2023-10-10T21:48:37.837Z,33.30
2023-10-10T21:51:08.431Z,32.90
2023-10-10T21:53:38.448Z,33.00
2023-10-10T21:56:07.629Z,33.50
2023-10-10T21:58:39.431Z,33.10
2023-10-10T22:01:07.684Z,34.00
2023-10-10T22:03:38.722Z,34.30
2023-10-10T22:06:08.516Z,33.10
2023-10-10T22:08:37.459Z,33.10
2023-10-10T22:11:08.774Z,33.30
2023-10-10T22:13:37.555Z,33.30
2023-10-10T22:16:06.443Z,33.40
2023-10-10T22:18:34.590Z,33.50
2023-10-10T22:21:04.288Z,33.60
2023-10-10T22:23:32.460Z,33.80
2023-10-10T22:26:03.654Z,33.70
2023-10-10T22:28:32.766Z,33.50
2023-10-10T22:31:00.951Z,33.80
2023-10-10T22:33:29.298Z,33.50
2023-10-10T22:35:57.521Z,33.70
2023-10-10T22:38:26.919Z,34.10
2023-10-10T22:40:56.814Z,34.70
2023-10-10T22:43:26.340Z,33.80
2023-10-10T22:45:54.342Z,34.00
2023-10-10T22:48:22.813Z,34.20
2023-10-10T22:50:53.858Z,33.90
2023-10-10T22:53:22.121Z,34.70
2023-10-10T22:55:51.985Z,34.50
2023-10-10T22:58:21.243Z,34.90
2023-10-10T23:00:49.596Z,34.50
2023-10-10T23:03:20.554Z,34.80
2023-10-10T23:05:49.097Z,34.90
2023-10-10T23:08:18.948Z,35.10
2023-10-10T23:10:49.188Z,35.00
2023-10-10T23:13:18.649Z,35.20
2023-10-10T23:15:50.143Z,34.90
2023-10-10T23:18:19.007Z,35.60
2023-10-10T23:20:47.762Z,35.30
2023-10-10T23:23:16.945Z,35.60
2023-10-10T23:25:45.334Z,36.00
2023-10-10T23:28:13.394Z,36.10
2023-10-10T23:30:43.401Z,36.40
2023-10-10T23:33:14.068Z,36.30
2023-10-10T23:35:43.032Z,36.20
2023-10-10T23:38:11.798Z,36.00
2023-10-10T23:40:41.946Z,36.00
2023-10-10T23:43:12.034Z,36.30
2023-10-10T23:45:43.094Z,36.50
2023-10-10T23:48:16.702Z,36.50
2023-10-10T23:50:45.626Z,36.40
2023-10-10T23:53:15.021Z,35.90
2023-10-10T23:55:47.568Z,36.20
2023-10-10T23:58:16.330Z,36.70
